createdAt,value
2019-02-06T00:01:02.535Z,-1.80
2019-02-06T00:03:29.901Z,-1.90
2019-02-06T00:05:57.551Z,-1.90
2019-02-06T00:08:24.784Z,-1.90
2019-02-06T00:10:52.131Z,-1.80
2019-02-06T00:13:19.548Z,-1.90
2019-02-06T00:15:57.714Z,-1.90
2019-02-06T00:18:28.063Z,-1.90
2019-02-06T00:20:55.358Z,-2.00
2019-02-06T00:23:22.672Z,-2.00
2019-02-06T00:25:50.005Z,-2.00
2019-02-06T00:28:17.328Z,-2.00
2019-02-06T00:30:45.049Z,-2.00
2019-02-06T00:33:12.297Z,-2.10
2019-02-06T00:35:39.611Z,-2.00
2019-02-06T00:38:06.935Z,-2.00
2019-02-06T00:40:34.192Z,-2.00
2019-02-06T00:43:01.413Z,-2.00
2019-02-06T00:45:31.231Z,-2.20
2019-02-06T00:48:06.263Z,-2.30
2019-02-06T00:50:33.611Z,-2.30
2019-02-06T00:53:00.932Z,-2.40
2019-02-06T00:55:28.215Z,-2.40
2019-02-06T00:57:55.523Z,-2.30
2019-02-06T01:00:22.907Z,-2.40
2019-02-06T01:02:51.260Z,-2.40
2019-02-06T01:05:19.360Z,-2.50
2019-02-06T01:07:46.574Z,-2.50
2019-02-06T01:10:14.552Z,-2.50
2019-02-06T01:12:41.801Z,-2.50
2019-02-06T01:15:10.077Z,-2.60
2019-02-06T01:17:37.450Z,-2.60
2019-02-06T01:20:05.641Z,-2.70
2019-02-06T01:22:33.275Z,-2.70
2019-02-06T01:25:00.630Z,-2.70
2019-02-06T01:27:28.177Z,-2.80
2019-02-06T01:29:55.472Z,-2.80
2019-02-06T01:32:22.793Z,-2.80
2019-02-06T01:34:50.117Z,-2.80
2019-02-06T01:37:17.335Z,-2.80
2019-02-06T01:39:44.556Z,-2.90
2019-02-06T01:42:12.127Z,-3.00
2019-02-06T01:44:39.354Z,-3.00
2019-02-06T01:47:06.679Z,-2.90
2019-02-06T01:49:34.079Z,-2.80
2019-02-06T01:52:01.309Z,-2.80
2019-02-06T01:54:28.531Z,-3.00
2019-02-06T01:56:55.771Z,-2.90
2019-02-06T01:59:23.314Z,-3.00
2019-02-06T02:01:50.655Z,-3.00
2019-02-06T02:04:17.879Z,-3.00
2019-02-06T02:06:45.343Z,-2.90
2019-02-06T02:09:26.546Z,-3.00
2019-02-06T02:11:53.840Z,-3.00
2019-02-06T02:14:32.035Z,-3.10
2019-02-06T02:17:05.161Z,-3.10
2019-02-06T02:19:40.236Z,-3.10
2019-02-06T02:22:11.913Z,-3.10
2019-02-06T02:24:39.095Z,-3.10
2019-02-06T02:27:06.775Z,-3.10
2019-02-06T02:29:34.304Z,-3.20
2019-02-06T02:32:01.669Z,-3.20
2019-02-06T02:34:29.372Z,-3.20
2019-02-06T02:36:56.959Z,-3.20
2019-02-06T02:39:24.196Z,-3.20
2019-02-06T02:41:51.828Z,-3.30
2019-02-06T02:44:19.804Z,-3.30
2019-02-06T02:46:47.079Z,-3.30
2019-02-06T02:49:14.421Z,-3.30
2019-02-06T02:51:44.287Z,-3.30
2019-02-06T02:54:11.052Z,-3.40
2019-02-06T02:56:38.923Z,-3.40
2019-02-06T02:59:06.292Z,-3.40
2019-02-06T03:01:51.992Z,-3.40
2019-02-06T03:04:38.241Z,-3.40
2019-02-06T03:07:05.589Z,-3.50
2019-02-06T03:09:34.865Z,-3.50
2019-02-06T03:12:02.361Z,-3.40
2019-02-06T03:14:29.727Z,-3.40
2019-02-06T03:16:56.987Z,-3.50
2019-02-06T03:19:24.236Z,-3.50
2019-02-06T03:21:51.471Z,-3.60
2019-02-06T03:24:18.753Z,-3.50
2019-02-06T03:26:46.184Z,-3.40
2019-02-06T03:29:13.587Z,-3.30
2019-02-06T03:31:40.862Z,-3.40
2019-02-06T03:34:08.244Z,-3.40
2019-02-06T03:36:40.608Z,-3.50
2019-02-06T03:39:07.418Z,-3.60
2019-02-06T03:41:35.151Z,-3.60
2019-02-06T03:44:02.696Z,-3.50
2019-02-06T03:46:29.951Z,-3.40
2019-02-06T03:48:57.661Z,-3.40
2019-02-06T03:51:25.028Z,-3.40
2019-02-06T03:53:52.441Z,-3.40
2019-02-06T03:56:20.197Z,-3.40
2019-02-06T03:58:47.427Z,-3.60
2019-02-06T04:01:14.688Z,-3.70
2019-02-06T04:03:42.333Z,-3.60
2019-02-06T04:06:09.690Z,-3.70
2019-02-06T04:08:37.030Z,-3.70
2019-02-06T04:11:04.404Z,-3.70
2019-02-06T04:13:31.762Z,-3.80
2019-02-06T04:15:59.136Z,-3.80
2019-02-06T04:18:26.596Z,-3.80
2019-02-06T04:20:53.969Z,-3.70
2019-02-06T04:23:21.203Z,-3.70
2019-02-06T04:25:48.473Z,-3.60
2019-02-06T04:28:15.707Z,-3.80
2019-02-06T04:30:42.975Z,-3.80
2019-02-06T04:33:10.225Z,-3.90
2019-02-06T04:35:37.571Z,-3.90
2019-02-06T04:38:04.830Z,-3.90
2019-02-06T04:40:32.386Z,-3.90
2019-02-06T04:42:59.624Z,-3.90
2019-02-06T04:45:27.167Z,-3.90
2019-02-06T04:47:54.816Z,-4.00
2019-02-06T04:50:22.081Z,-3.90
2019-02-06T04:52:49.418Z,-3.80
2019-02-06T04:55:16.887Z,-3.80
2019-02-06T04:57:46.415Z,-3.80
2019-02-06T05:00:21.851Z,-3.70
2019-02-06T05:02:49.083Z,-3.70
2019-02-06T05:05:16.408Z,-3.70
2019-02-06T05:07:43.765Z,-3.70
2019-02-06T05:10:11.885Z,-3.80
2019-02-06T05:12:39.209Z,-3.90
2019-02-06T05:15:07.662Z,-3.90
2019-02-06T05:17:35.279Z,-3.90
2019-02-06T05:20:06.440Z,-3.80
2019-02-06T05:22:33.781Z,-3.70
2019-02-06T05:25:01.119Z,-3.80
2019-02-06T05:27:28.449Z,-4.00
2019-02-06T05:29:55.776Z,-4.00
2019-02-06T05:32:23.340Z,-4.00
2019-02-06T05:34:50.579Z,-4.10
2019-02-06T05:37:18.040Z,-4.10
2019-02-06T05:39:45.277Z,-4.20
2019-02-06T05:42:12.534Z,-4.20
2019-02-06T05:44:40.143Z,-4.10
2019-02-06T05:47:07.515Z,-4.00
2019-02-06T05:49:34.848Z,-4.10
2019-02-06T05:52:02.185Z,-4.20
2019-02-06T05:54:29.517Z,-4.20
2019-02-06T05:56:56.864Z,-4.20
2019-02-06T05:59:24.080Z,-4.20
2019-02-06T06:01:51.327Z,-4.20
2019-02-06T06:04:18.652Z,-4.20
2019-02-06T06:06:46.356Z,-4.20
2019-02-06T06:09:15.480Z,-4.20
2019-02-06T06:11:42.832Z,-4.10
2019-02-06T06:14:10.057Z,-4.10
2019-02-06T06:16:37.583Z,-4.20
2019-02-06T06:19:04.813Z,-4.30
2019-02-06T06:21:32.166Z,-4.30
2019-02-06T06:23:59.405Z,-4.30
2019-02-06T06:26:26.752Z,-4.30
2019-02-06T06:28:54.483Z,-4.30
2019-02-06T06:31:21.736Z,-4.30
2019-02-06T06:33:49.298Z,-4.20
2019-02-06T06:36:17.756Z,-4.20
2019-02-06T06:38:45.100Z,-4.20
2019-02-06T06:41:12.673Z,-4.20
2019-02-06T06:43:40.010Z,-4.20
2019-02-06T06:46:07.421Z,-4.20
2019-02-06T06:48:34.795Z,-4.00
2019-02-06T06:51:02.487Z,-4.00
2019-02-06T06:53:30.147Z,-4.00
2019-02-06T06:55:57.381Z,-3.80
2019-02-06T06:58:24.619Z,-3.80
2019-02-06T07:00:51.848Z,-3.70
2019-02-06T07:03:19.154Z,-3.80
2019-02-06T07:05:46.739Z,-3.70
2019-02-06T07:08:13.996Z,-3.70
2019-02-06T07:10:41.325Z,-3.70
2019-02-06T07:13:08.589Z,-3.50
2019-02-06T07:15:35.911Z,-3.50
2019-02-06T07:18:03.940Z,-3.60
2019-02-06T07:20:31.168Z,-3.70
2019-02-06T07:22:58.823Z,-3.70
2019-02-06T07:25:26.162Z,-3.80
2019-02-06T07:27:53.422Z,-3.70
2019-02-06T07:30:23.283Z,-3.60
2019-02-06T07:32:51.104Z,-3.60
2019-02-06T07:35:18.345Z,-3.40
2019-02-06T07:37:45.691Z,-3.40
2019-02-06T07:40:13.765Z,-3.30
2019-02-06T07:42:41.044Z,-3.10
2019-02-06T07:45:09.755Z,-3.10
2019-02-06T07:47:37.023Z,-3.10
2019-02-06T07:50:06.351Z,-3.10
2019-02-06T07:52:33.619Z,-3.00
2019-02-06T07:55:00.873Z,-2.70
2019-02-06T07:57:28.675Z,-2.60
2019-02-06T07:59:56.043Z,-2.60
2019-02-06T08:02:23.387Z,-2.50
2019-02-06T08:04:50.711Z,-2.50
2019-02-06T08:07:18.008Z,-2.40
2019-02-06T08:09:45.312Z,-2.30
2019-02-06T08:12:12.554Z,-2.20
2019-02-06T08:14:39.881Z,-2.20
2019-02-06T08:17:07.771Z,-2.20
2019-02-06T08:19:35.003Z,-2.00
2019-02-06T08:22:02.327Z,-1.90
2019-02-06T08:24:29.938Z,-1.80
2019-02-06T08:26:57.255Z,-1.70
2019-02-06T08:29:24.855Z,-1.60
2019-02-06T08:31:52.190Z,-1.40
2019-02-06T08:34:19.719Z,-1.20
2019-02-06T08:36:46.953Z,-1.20
2019-02-06T08:39:14.276Z,-1.20
2019-02-06T08:41:41.825Z,-0.90
2019-02-06T08:44:09.056Z,-0.70
2019-02-06T08:46:36.291Z,-0.50
2019-02-06T08:49:03.926Z,-0.50
2019-02-06T08:51:31.231Z,-0.50
2019-02-06T08:53:58.474Z,-0.10
2019-02-06T08:56:25.732Z,0.50
2019-02-06T08:58:53.631Z,0.80
2019-02-06T09:01:21.410Z,0.60
2019-02-06T09:03:48.763Z,0.20
2019-02-06T09:06:15.991Z,-0.10
2019-02-06T09:08:43.239Z,-0.20
2019-02-06T09:11:10.861Z,-0.30
2019-02-06T09:13:38.500Z,-0.40
2019-02-06T09:16:05.719Z,-0.40
2019-02-06T09:18:32.971Z,-0.30
2019-02-06T09:21:00.231Z,-0.40
2019-02-06T09:23:27.763Z,-0.20
2019-02-06T09:25:57.412Z,-0.10
2019-02-06T09:28:24.147Z,0.20
2019-02-06T09:30:51.672Z,0.50
2019-02-06T09:33:18.979Z,0.70
2019-02-06T09:35:46.203Z,0.60
2019-02-06T09:38:13.761Z,0.50
2019-02-06T09:40:41.075Z,0.40
2019-02-06T09:43:08.292Z,0.50
2019-02-06T09:45:35.532Z,1.00
2019-02-06T09:48:03.456Z,1.80
2019-02-06T09:50:32.816Z,2.90
2019-02-06T09:53:00.135Z,3.80
2019-02-06T09:55:27.357Z,4.30
2019-02-06T09:57:54.580Z,5.10
2019-02-06T10:00:27.091Z,5.70
2019-02-06T10:02:54.403Z,6.00
2019-02-06T10:05:22.128Z,6.50
2019-02-06T10:07:49.449Z,6.40
2019-02-06T10:10:18.308Z,6.60
2019-02-06T10:12:45.544Z,7.30
2019-02-06T10:15:16.289Z,7.80
2019-02-06T10:17:43.507Z,8.50
2019-02-06T10:20:12.849Z,8.10
2019-02-06T10:22:40.181Z,7.70
2019-02-06T10:25:07.851Z,8.40
2019-02-06T10:27:35.069Z,8.50
2019-02-06T10:30:03.999Z,8.50
2019-02-06T10:32:31.361Z,8.40
2019-02-06T10:34:58.904Z,9.00
2019-02-06T10:37:29.061Z,9.40
2019-02-06T10:39:55.263Z,9.80
2019-02-06T10:42:22.380Z,9.30
2019-02-06T10:44:49.914Z,8.90
2019-02-06T10:47:17.233Z,9.30
2019-02-06T10:49:44.927Z,9.70
2019-02-06T10:52:12.143Z,9.80
2019-02-06T10:54:39.385Z,10.00
2019-02-06T10:57:10.005Z,10.30
2019-02-06T10:59:36.263Z,11.10
2019-02-06T11:02:03.869Z,11.80
2019-02-06T11:04:31.117Z,11.90
2019-02-06T11:06:58.439Z,11.90
2019-02-06T11:09:26.008Z,12.20
2019-02-06T11:11:53.328Z,12.00
2019-02-06T11:14:21.224Z,11.80
2019-02-06T11:16:48.820Z,11.80
2019-02-06T11:19:16.045Z,11.40
2019-02-06T11:21:43.364Z,11.70
2019-02-06T11:24:10.584Z,11.50
2019-02-06T11:26:37.813Z,11.60
2019-02-06T11:29:05.365Z,12.20
2019-02-06T11:31:32.581Z,12.30
2019-02-06T11:34:00.191Z,12.10
2019-02-06T11:36:27.408Z,11.40
2019-02-06T11:38:54.651Z,11.20
2019-02-06T11:41:22.231Z,11.20
2019-02-06T11:43:49.489Z,10.90
2019-02-06T11:46:16.804Z,11.00
2019-02-06T11:48:44.299Z,9.80
2019-02-06T11:51:11.940Z,10.40
2019-02-06T11:53:39.252Z,11.00
2019-02-06T11:56:06.472Z,10.80
2019-02-06T11:58:33.708Z,10.70
2019-02-06T12:01:09.814Z,10.50
2019-02-06T12:03:37.131Z,10.50
2019-02-06T12:06:04.432Z,10.10
2019-02-06T12:08:31.759Z,9.60
2019-02-06T12:10:59.195Z,9.50
2019-02-06T12:13:26.421Z,9.90
2019-02-06T12:15:53.647Z,9.90
2019-02-06T12:18:20.868Z,9.60
2019-02-06T12:20:48.401Z,9.30
2019-02-06T12:23:15.740Z,9.40
2019-02-06T12:25:43.455Z,9.00
2019-02-06T12:28:10.680Z,8.70
2019-02-06T12:30:38.507Z,8.60
2019-02-06T12:33:06.028Z,8.20
2019-02-06T12:35:33.255Z,8.30
2019-02-06T12:38:00.580Z,8.40
2019-02-06T12:40:28.007Z,8.20
2019-02-06T12:42:55.219Z,8.10
2019-02-06T12:45:22.579Z,8.00
2019-02-06T12:47:50.517Z,8.20
2019-02-06T12:50:17.767Z,8.60
2019-02-06T12:52:45.084Z,8.60
2019-02-06T12:55:19.615Z,9.10
2019-02-06T12:57:47.520Z,8.90
2019-02-06T13:00:23.726Z,8.80
2019-02-06T13:02:51.464Z,8.70
2019-02-06T13:05:18.734Z,8.50
2019-02-06T13:07:45.958Z,8.50
2019-02-06T13:10:13.872Z,8.30
2019-02-06T13:12:41.092Z,8.20
2019-02-06T13:15:10.584Z,8.30
2019-02-06T13:17:37.908Z,8.40
2019-02-06T13:20:09.325Z,8.70
2019-02-06T13:22:36.648Z,8.80
2019-02-06T13:25:04.863Z,9.10
2019-02-06T13:27:32.088Z,9.50
2019-02-06T13:29:59.399Z,9.90
2019-02-06T13:32:26.613Z,10.30
2019-02-06T13:34:53.924Z,10.60
2019-02-06T13:37:21.980Z,10.60
2019-02-06T13:39:49.229Z,10.60
2019-02-06T13:42:16.543Z,10.40
2019-02-06T13:44:44.141Z,10.20
2019-02-06T13:47:11.348Z,9.60
2019-02-06T13:49:38.678Z,9.20
2019-02-06T13:52:05.903Z,8.80
2019-02-06T13:54:33.299Z,8.50
2019-02-06T13:57:00.522Z,8.40
2019-02-06T13:59:27.839Z,8.30
2019-02-06T14:01:55.415Z,8.20
2019-02-06T14:04:22.644Z,8.00
2019-02-06T14:06:49.968Z,8.00
2019-02-06T14:09:22.836Z,8.00
2019-02-06T14:11:46.436Z,7.80
2019-02-06T14:14:14.044Z,7.70
2019-02-06T14:16:41.920Z,7.40
2019-02-06T14:19:09.445Z,7.10
2019-02-06T14:21:36.905Z,7.10
2019-02-06T14:24:15.275Z,7.00
2019-02-06T14:27:22.155Z,6.80
2019-02-06T14:30:27.036Z,6.90
2019-02-06T14:33:51.021Z,7.10
2019-02-06T14:37:01.304Z,7.10
2019-02-06T14:39:53.572Z,7.10
2019-02-06T14:42:39.544Z,7.00
2019-02-06T14:45:45.870Z,6.90
2019-02-06T14:48:44.859Z,6.70
2019-02-06T14:52:15.115Z,6.50
2019-02-06T14:55:14.388Z,6.40
2019-02-06T14:58:19.827Z,6.10
2019-02-06T15:01:28.252Z,5.80
2019-02-06T15:04:39.748Z,5.60
2019-02-06T15:07:33.085Z,5.50
2019-02-06T15:10:22.756Z,5.60
2019-02-06T15:13:32.916Z,5.50
2019-02-06T15:16:33.292Z,5.40
2019-02-06T15:19:39.101Z,5.40
2019-02-06T15:22:57.400Z,5.20
2019-02-06T15:25:45.588Z,5.10
2019-02-06T15:28:31.575Z,5.00
2019-02-06T15:31:43.119Z,4.90
2019-02-06T15:34:55.743Z,4.80
2019-02-06T15:38:06.604Z,4.80
2019-02-06T15:41:03.284Z,4.80
2019-02-06T15:44:10.583Z,4.70
2019-02-06T15:47:08.101Z,4.70
2019-02-06T15:50:00.319Z,4.50
2019-02-06T15:52:55.606Z,4.50
2019-02-06T15:56:17.768Z,4.30
2019-02-06T15:59:19.086Z,4.10
2019-02-06T16:02:24.678Z,4.00
2019-02-06T16:05:43.780Z,4.00
2019-02-06T16:08:42.999Z,3.90
2019-02-06T16:11:42.536Z,3.90
2019-02-06T16:14:18.667Z,3.60
2019-02-06T16:17:52.283Z,3.50
2019-02-06T16:21:11.228Z,3.50
2019-02-06T16:24:17.003Z,3.40
2019-02-06T16:27:31.928Z,3.10
2019-02-06T16:30:31.132Z,2.90
2019-02-06T16:33:39.651Z,2.70
2019-02-06T16:36:49.789Z,2.50
2019-02-06T16:39:51.264Z,2.40
2019-02-06T16:42:45.178Z,2.20
2019-02-06T16:45:32.241Z,2.20
2019-02-06T16:48:53.431Z,2.10
2019-02-06T16:51:35.047Z,1.90
2019-02-06T16:54:40.204Z,1.80
2019-02-06T16:57:51.901Z,1.70
2019-02-06T17:00:53.217Z,1.80
2019-02-06T17:03:55.693Z,2.00
2019-02-06T17:06:50.972Z,1.80
2019-02-06T17:10:05.973Z,1.50
2019-02-06T17:13:11.433Z,1.30
2019-02-06T17:15:59.367Z,1.20
2019-02-06T17:19:06.797Z,1.30
2019-02-06T17:22:18.216Z,1.30
2019-02-06T17:25:27.211Z,1.30
2019-02-06T17:28:20.400Z,1.20
2019-02-06T17:31:20.864Z,1.10
2019-02-06T17:34:45.280Z,1.00
2019-02-06T17:37:30.491Z,1.00
2019-02-06T17:40:28.012Z,0.90
2019-02-06T17:43:55.479Z,1.00
2019-02-06T17:46:44.719Z,1.00
2019-02-06T17:50:05.872Z,0.90
2019-02-06T17:53:29.191Z,0.90
2019-02-06T17:55:59.859Z,0.70
2019-02-06T17:58:31.335Z,0.70
2019-02-06T18:01:12.219Z,0.80
2019-02-06T18:03:43.457Z,0.70
2019-02-06T18:06:11.127Z,0.50
2019-02-06T18:08:39.534Z,0.40
2019-02-06T18:11:07.065Z,0.30
2019-02-06T18:13:35.189Z,0.30
2019-02-06T18:16:02.827Z,0.30
2019-02-06T18:18:30.048Z,0.30
2019-02-06T18:20:57.229Z,0.40
2019-02-06T18:23:24.446Z,0.40
2019-02-06T18:25:53.418Z,0.30
2019-02-06T18:28:21.039Z,0.30
2019-02-06T18:30:48.724Z,0.30
2019-02-06T18:33:18.770Z,0.20
2019-02-06T18:35:47.216Z,0.20
2019-02-06T18:38:14.655Z,0.10
2019-02-06T18:40:43.200Z,0.00
2019-02-06T18:43:11.126Z,-0.20
2019-02-06T18:45:38.566Z,-0.30
2019-02-06T18:48:07.511Z,-0.30
2019-02-06T18:50:36.812Z,-0.30
2019-02-06T18:53:05.597Z,-0.20
2019-02-06T18:55:33.285Z,-0.40
2019-02-06T18:58:00.616Z,-0.40
2019-02-06T19:00:32.119Z,-0.50
2019-02-06T19:02:59.732Z,-0.70
2019-02-06T19:05:30.604Z,-0.60
2019-02-06T19:07:58.076Z,-0.60
2019-02-06T19:10:26.052Z,-0.50
2019-02-06T19:12:53.950Z,-0.40
2019-02-06T19:15:21.215Z,-0.40
2019-02-06T19:17:49.219Z,-0.40
2019-02-06T19:20:16.931Z,-0.40
2019-02-06T19:22:44.547Z,-0.40
2019-02-06T19:25:12.692Z,-0.40
2019-02-06T19:27:40.026Z,-0.40
2019-02-06T19:30:16.232Z,-0.50
2019-02-06T19:32:44.512Z,-0.60
2019-02-06T19:35:14.088Z,-0.70
2019-02-06T19:37:41.693Z,-0.70
2019-02-06T19:40:09.256Z,-0.50
2019-02-06T19:42:36.600Z,-0.50
2019-02-06T19:45:05.486Z,-0.50
2019-02-06T19:47:33.135Z,-0.50
2019-02-06T19:50:00.465Z,-0.60
2019-02-06T19:52:28.480Z,-0.60
2019-02-06T19:54:56.044Z,-0.60
2019-02-06T19:57:25.940Z,-0.70
2019-02-06T19:59:52.510Z,-0.70
2019-02-06T20:02:19.884Z,-0.70
2019-02-06T20:04:47.213Z,-0.70
2019-02-06T20:07:14.549Z,-0.90
2019-02-06T20:09:41.912Z,-0.80
2019-02-06T20:12:09.307Z,-0.80
2019-02-06T20:14:37.007Z,-0.70
2019-02-06T20:17:04.551Z,-0.80
2019-02-06T20:19:31.889Z,-0.80
2019-02-06T20:21:59.219Z,-0.80
2019-02-06T20:24:26.553Z,-0.80
2019-02-06T20:26:53.891Z,-0.80
2019-02-06T20:29:21.227Z,-0.80
2019-02-06T20:31:48.642Z,-0.90
2019-02-06T20:34:15.980Z,-0.90
2019-02-06T20:36:43.736Z,-0.90
2019-02-06T20:39:11.033Z,-0.90
2019-02-06T20:41:38.435Z,-1.00
2019-02-06T20:44:05.867Z,-1.00
2019-02-06T20:46:33.247Z,-1.00
2019-02-06T20:49:00.589Z,-1.00
2019-02-06T20:51:28.084Z,-1.10
2019-02-06T20:53:55.457Z,-1.00
2019-02-06T20:56:22.734Z,-1.10
2019-02-06T20:58:50.615Z,-1.10
2019-02-06T21:01:18.286Z,-1.20
2019-02-06T21:03:54.271Z,-1.10
2019-02-06T21:06:21.887Z,-1.00
2019-02-06T21:08:49.553Z,-1.00
2019-02-06T21:11:16.889Z,-0.90
2019-02-06T21:13:44.623Z,-0.90
2019-02-06T21:16:11.846Z,-1.00
2019-02-06T21:18:39.181Z,-1.00
2019-02-06T21:21:06.496Z,-1.00
2019-02-06T21:23:33.853Z,-1.00
2019-02-06T21:26:01.459Z,-1.00
2019-02-06T21:28:28.778Z,-1.20
2019-02-06T21:30:56.546Z,-1.20
2019-02-06T21:33:24.071Z,-1.20
2019-02-06T21:35:51.393Z,-1.00
2019-02-06T21:38:18.653Z,-1.00
2019-02-06T21:40:45.993Z,-1.00
2019-02-06T21:43:13.307Z,-1.00
2019-02-06T21:45:40.882Z,-1.00
2019-02-06T21:48:08.167Z,-1.10
2019-02-06T21:50:35.810Z,-1.30
2019-02-06T21:53:03.152Z,-1.30
2019-02-06T21:55:30.489Z,-1.30
2019-02-06T21:57:57.819Z,-1.30
2019-02-06T22:00:39.271Z,-1.20
2019-02-06T22:03:06.702Z,-1.40
2019-02-06T22:05:35.075Z,-1.40
2019-02-06T22:08:02.407Z,-1.50
2019-02-06T22:10:29.948Z,-1.60
2019-02-06T22:12:57.079Z,-1.50
2019-02-06T22:15:25.823Z,-1.50
2019-02-06T22:17:53.161Z,-1.40
2019-02-06T22:20:20.503Z,-1.30
2019-02-06T22:22:48.091Z,-1.50
2019-02-06T22:25:15.419Z,-1.60
2019-02-06T22:27:42.752Z,-1.60
2019-02-06T22:30:14.539Z,-1.70
2019-02-06T22:32:41.791Z,-1.60
2019-02-06T22:35:11.902Z,-1.70
2019-02-06T22:37:38.781Z,-1.60
2019-02-06T22:40:09.150Z,-1.60
2019-02-06T22:42:36.859Z,-1.60
2019-02-06T22:45:06.220Z,-1.60
2019-02-06T22:47:33.771Z,-1.70
2019-02-06T22:50:01.483Z,-1.70
2019-02-06T22:52:28.840Z,-1.60
2019-02-06T22:54:56.481Z,-1.70
2019-02-06T22:57:24.159Z,-1.60
2019-02-06T22:59:51.819Z,-1.50
2019-02-06T23:02:19.499Z,-1.50
2019-02-06T23:04:46.826Z,-1.40
2019-02-06T23:07:14.161Z,-1.40
2019-02-06T23:09:41.505Z,-1.40
2019-02-06T23:12:09.149Z,-1.40
2019-02-06T23:14:36.380Z,-1.40
2019-02-06T23:17:03.735Z,-1.50
2019-02-06T23:19:30.967Z,-1.50
2019-02-06T23:21:58.197Z,-1.30
2019-02-06T23:24:25.427Z,-1.40
2019-02-06T23:26:52.919Z,-1.40
2019-02-06T23:29:20.556Z,-1.50
2019-02-06T23:31:47.783Z,-1.50
2019-02-06T23:34:15.020Z,-1.50
2019-02-06T23:36:42.247Z,-1.60
2019-02-06T23:39:16.621Z,-1.60
2019-02-06T23:41:43.953Z,-1.70
2019-02-06T23:44:11.583Z,-1.70
2019-02-06T23:46:38.812Z,-1.60
2019-02-06T23:49:06.149Z,-1.70
2019-02-06T23:51:33.483Z,-1.70
2019-02-06T23:54:00.715Z,-1.80
2019-02-06T23:56:28.048Z,-1.80
2019-02-06T23:58:58.145Z,-1.80
